Time;durP1;ratioP1;P1;durP2;ratioP2;P2;SDS_P1;SDS_P2;PMS_P1;PMS_P2;Temp;Humidity;BMP_temperature;BMP_pressure;BME280_temperature;BME280_humidity;BME280_pressure;Samples;Min_cycle;Max_cycle;Signal;HPM_P1;HPM_P2
2022/10/11 00:01:06;;;;;;;8.77;5.95;;;;;;;7.00;78.51;100352.28;5119883;27;20130;-67
2022/10/11 00:03:43;;;;;;;12.98;6.15;;;;;;;7.00;78.05;100350.56;5116425;27;1398828;-67
2022/10/11 00:06:19;;;;;;;10.02;5.30;;;;;;;6.98;78.23;100348.81;5115243;27;20644;-69
2022/10/11 00:08:57;;;;;;;11.00;5.93;;;;;;;6.90;78.37;100341.94;5080431;28;20668;-68
2022/10/11 00:11:35;;;;;;;9.80;5.40;;;;;;;6.91;78.84;100353.97;5101018;27;20196;-68
2022/10/11 00:14:12;;;;;;;8.15;5.60;;;;;;;6.94;78.15;100347.09;5080694;28;20632;-67
2022/10/11 00:16:47;;;;;;;9.93;5.72;;;;;;;6.88;78.49;100351.38;5116032;27;1414204;-66
2022/10/11 00:19:22;;;;;;;11.75;6.53;;;;;;;6.86;78.25;100345.34;5120871;27;1394229;-67
2022/10/11 00:21:58;;;;;;;8.63;5.82;;;;;;;6.82;78.66;100333.31;5121411;27;20623;-68
2022/10/11 00:24:35;;;;;;;9.45;6.43;;;;;;;6.73;78.64;100335.84;5080359;28;20145;-66
2022/10/11 00:27:11;;;;;;;12.32;6.40;;;;;;;6.71;78.90;100341.00;5121370;27;20132;-66
2022/10/11 00:29:47;;;;;;;9.07;6.20;;;;;;;6.68;78.87;100346.13;5102662;27;1403928;-66
2022/10/11 00:32:22;;;;;;;6.55;5.82;;;;;;;6.62;79.12;100324.66;5095892;27;1398516;-67
2022/10/11 00:35:03;;;;;;;11.13;5.65;;;;;;;6.70;78.92;100344.41;5121134;27;20723;-68
2022/10/11 00:37:43;;;;;;;11.23;5.97;;;;;;;6.64;78.92;100334.09;5121511;27;20687;-67
2022/10/11 00:40:21;;;;;;;8.88;5.38;;;;;;;6.62;79.09;100330.66;5121454;27;20555;-68
2022/10/11 00:42:58;;;;;;;7.97;5.18;;;;;;;6.69;78.60;100332.38;5120856;27;20529;-67
2022/10/11 00:45:34;;;;;;;9.05;5.38;;;;;;;6.71;78.91;100330.69;5114433;27;20860;-67
2022/10/11 00:48:22;;;;;;;8.73;6.32;;;;;;;6.60;79.00;100323.75;5087561;27;1397345;-67
2022/10/11 00:51:03;;;;;;;8.38;5.22;;;;;;;6.53;78.79;100304.88;5103640;27;20549;-68
2022/10/11 00:53:41;;;;;;;7.60;5.20;;;;;;;6.58;78.43;100308.31;5079656;27;20625;-67
2022/10/11 00:56:25;;;;;;;10.40;5.72;;;;;;;6.62;78.90;100328.06;5080626;28;20738;-66
2022/10/11 00:59:09;;;;;;;7.03;4.82;;;;;;;6.58;78.82;100334.06;5115538;27;20651;-67
2022/10/11 01:01:46;;;;;;;5.80;5.15;;;;;;;6.64;78.65;100328.06;5060724;27;20623;-66
2022/10/11 01:04:24;;;;;;;6.45;5.22;;;;;;;6.51;78.83;100311.72;5080568;27;20548;-66
2022/10/11 01:07:02;;;;;;;11.13;6.03;;;;;;;6.64;78.67;100328.06;5069115;28;20649;-67
2022/10/11 01:09:40;;;;;;;7.63;5.28;;;;;;;6.61;78.36;100334.06;5080659;28;20698;-67
2022/10/11 01:12:20;;;;;;;7.80;5.47;;;;;;;6.58;78.50;100316.03;5085956;27;2090365;-67
2022/10/11 01:15:12;;;;;;;8.85;5.95;;;;;;;6.40;78.68;100303.94;5120852;27;20619;-67
2022/10/11 01:18:06;;;;;;;7.00;4.75;;;;;;;6.51;78.39;100322.00;5121549;27;21132;-66
2022/10/11 01:21:11;;;;;;;9.25;5.40;;;;;;;6.49;78.88;100323.72;5080817;28;20622;-67
2022/10/11 01:23:55;;;;;;;8.73;5.65;;;;;;;6.36;78.98;100313.34;5121479;27;20850;-67
2022/10/11 01:27:00;;;;;;;6.35;5.15;;;;;;;6.41;79.19;100315.09;5121300;27;20146;-67
2022/10/11 01:30:23;;;;;;;7.57;5.80;;;;;;;6.35;78.86;100318.50;5121203;27;20127;-67
2022/10/11 01:33:21;;;;;;;8.00;5.32;;;;;;;6.29;79.21;100321.03;5121204;27;20619;-67
2022/10/11 01:36:26;;;;;;;6.40;4.85;;;;;;;6.20;79.47;100304.69;5121440;27;20676;-67
2022/10/11 01:39:20;;;;;;;10.73;5.70;;;;;;;6.16;79.30;100296.94;5080455;28;20715;-67
2022/10/11 01:42:02;;;;;;;7.45;4.63;;;;;;;6.25;79.32;100307.28;5121552;27;20688;-67
2022/10/11 01:44:41;;;;;;;7.70;5.50;;;;;;;6.18;79.08;100300.38;5100972;27;20698;-67
2022/10/11 01:47:19;;;;;;;6.18;5.38;;;;;;;6.35;79.06;100321.06;5121443;27;21009;-67
2022/10/11 01:50:00;;;;;;;7.18;5.43;;;;;;;6.25;79.30;100309.00;5121428;27;20696;-66
2022/10/11 01:52:43;;;;;;;7.78;4.93;;;;;;;6.27;79.09;100308.16;5121127;27;20627;-68
2022/10/11 01:56:05;;;;;;;8.77;5.45;;;;;;;6.27;78.74;100312.44;5119782;27;20627;-68
2022/10/11 01:59:01;;;;;;;7.60;5.22;;;;;;;6.34;78.90;100316.75;5116984;27;1381717;-66
2022/10/11 02:02:12;;;;;;;8.30;6.00;;;;;;;6.40;78.19;100316.81;5114895;27;1399980;-67
2022/10/11 02:04:54;;;;;;;8.65;5.60;;;;;;;6.36;78.31;100317.66;5116894;27;1383386;-66
2022/10/11 02:07:52;;;;;;;9.13;5.05;;;;;;;6.32;78.35;100321.03;5106207;27;20667;-67
2022/10/11 02:11:03;;;;;;;6.70;5.00;;;;;;;6.19;78.18;100302.94;5100904;27;1375469;-67
2022/10/11 02:14:05;;;;;;;8.50;5.20;;;;;;;6.16;78.04;100315.78;5121386;27;20890;-66
2022/10/11 02:17:02;;;;;;;8.88;5.05;;;;;;;6.16;78.88;100304.66;5141877;27;20134;-67
2022/10/11 02:19:42;;;;;;;8.90;5.72;;;;;;;6.11;78.50;100314.03;5106216;27;1403817;-66
2022/10/11 02:22:28;;;;;;;8.88;5.80;;;;;;;6.02;78.95;100292.56;5111835;27;20710;-66
2022/10/11 02:25:11;;;;;;;9.73;5.43;;;;;;;6.13;78.50;100314.91;5120487;27;1397466;-66
2022/10/11 02:27:53;;;;;;;6.25;4.80;;;;;;;6.09;78.44;100300.31;5080834;28;20936;-66
2022/10/11 02:30:31;;;;;;;10.23;5.40;;;;;;;6.10;78.79;100320.91;5080557;28;20632;-66
2022/10/11 02:33:14;;;;;;;8.60;4.90;;;;;;;6.05;79.15;100323.41;5119071;27;20631;-67
2022/10/11 02:36:00;;;;;;;9.82;5.07;;;;;;;6.02;78.49;100312.28;5121566;27;20619;-66
2022/10/11 02:38:43;;;;;;;9.45;5.25;;;;;;;6.11;78.54;100334.63;5121159;27;20645;-67
2022/10/11 02:41:30;;;;;;;10.27;6.00;;;;;;;6.00;79.02;100322.53;5100995;27;20611;-66
2022/10/11 02:44:31;;;;;;;8.38;5.53;;;;;;;6.02;79.20;100332.84;5116396;27;1406965;-66
2022/10/11 02:47:08;;;;;;;10.93;4.97;;;;;;;6.02;78.99;100333.69;5080648;28;20652;-66
2022/10/11 02:49:44;;;;;;;8.85;5.28;;;;;;;6.05;79.06;100323.41;5100429;27;1413674;-66
2022/10/11 02:52:21;;;;;;;12.85;6.32;;;;;;;5.98;78.36;100328.53;5121197;27;20610;-66
2022/10/11 02:54:57;;;;;;;11.57;6.03;;;;;;;6.07;78.63;100330.28;5080688;28;20130;-66
2022/10/11 02:57:32;;;;;;;12.85;5.75;;;;;;;6.01;78.18;100326.84;5125029;27;1396392;-66
2022/10/11 03:00:10;;;;;;;10.45;5.45;;;;;;;5.98;78.22;100326.78;5121374;27;20631;-66
2022/10/11 03:02:47;;;;;;;8.98;5.20;;;;;;;5.98;78.77;100321.66;5121324;27;20607;-66
2022/10/11 03:05:24;;;;;;;12.82;5.40;;;;;;;6.05;78.64;100330.28;5121402;27;20132;-66
2022/10/11 03:07:59;;;;;;;12.35;5.80;;;;;;;6.02;78.27;100328.53;5125007;27;1400940;-66
2022/10/11 03:10:34;;;;;;;10.90;7.47;;;;;;;5.98;78.59;100326.78;5099745;27;1405437;-67
2022/10/11 03:13:10;;;;;;;7.88;5.43;;;;;;;5.94;78.57;100324.16;5080456;28;20672;-66
2022/10/11 03:15:51;;;;;;;6.45;5.05;;;;;;;5.93;78.67;100328.47;5121288;27;20132;-67
2022/10/11 03:18:27;;;;;;;8.80;5.88;;;;;;;5.86;78.52;100321.53;5102484;27;1379408;-67
2022/10/11 03:21:03;;;;;;;11.57;5.38;;;;;;;5.91;78.75;100322.44;5121300;27;20649;-67
2022/10/11 03:23:38;;;;;;;8.90;5.20;;;;;;;5.89;77.87;100319.00;5113114;27;1379172;-67
2022/10/11 03:26:15;;;;;;;9.32;5.32;;;;;;;5.79;78.42;100310.34;5061930;28;20653;-67
2022/10/11 03:28:50;;;;;;;9.68;5.50;;;;;;;5.73;78.68;100323.16;5099298;27;1396372;-67
2022/10/11 03:31:26;;;;;;;8.30;5.72;;;;;;;5.63;78.91;100311.94;5162389;27;20826;-68
2022/10/11 03:34:03;;;;;;;9.38;5.05;;;;;;;5.57;79.12;100322.13;5121397;27;20170;-69
2022/10/11 03:36:40;;;;;;;8.52;6.00;;;;;;;5.55;79.44;100320.41;5121206;27;20132;-68
2022/10/11 03:39:16;;;;;;;9.43;5.90;;;;;;;5.55;79.40;100321.28;5077463;27;2083000;-68
2022/10/11 03:41:53;;;;;;;12.35;6.00;;;;;;;5.58;79.23;100317.88;5121653;27;20512;-68
2022/10/11 03:44:28;;;;;;;7.38;4.95;;;;;;;5.54;79.52;100309.25;5117009;27;1388546;-67
2022/10/11 03:47:05;;;;;;;9.43;5.35;;;;;;;5.54;79.78;100309.25;5121277;27;20637;-66
2022/10/11 03:49:41;;;;;;;8.88;5.00;;;;;;;5.62;80.02;100310.19;5121072;27;20132;-66
2022/10/11 03:52:18;;;;;;;7.90;5.30;;;;;;;5.58;79.57;100299.88;5073128;28;20145;-67
2022/10/11 03:54:55;;;;;;;8.23;5.70;;;;;;;5.57;79.57;100304.16;5121301;27;20750;-67
2022/10/11 03:57:34;;;;;;;9.25;6.53;;;;;;;5.58;79.17;100295.59;5118672;27;20645;-66
2022/10/11 04:00:13;;;;;;;10.32;5.90;;;;;;;5.68;78.89;100305.09;5091036;27;20676;-67
2022/10/11 04:02:50;;;;;;;15.25;5.97;;;;;;;5.64;79.29;100305.94;5080788;27;20702;-65
2022/10/11 04:05:27;;;;;;;8.45;5.38;;;;;;;5.60;79.54;100308.47;5121473;27;20151;-67
2022/10/11 04:08:02;;;;;;;9.88;5.88;;;;;;;5.60;79.14;100304.19;5098153;27;1390244;-66
2022/10/11 04:10:38;;;;;;;12.35;5.80;;;;;;;5.57;79.37;100299.00;5083417;27;1392269;-66
2022/10/11 04:13:16;;;;;;;10.70;6.10;;;;;;;5.64;79.43;100305.06;5121002;27;21021;-64
2022/10/11 04:15:52;;;;;;;9.38;5.75;;;;;;;5.61;79.59;100294.78;5080465;28;20422;-65
2022/10/11 04:18:28;;;;;;;13.90;6.20;;;;;;;5.67;79.51;100300.84;5118894;27;20198;-65
2022/10/11 04:21:04;;;;;;;10.35;6.50;;;;;;;5.57;79.06;100287.88;5114809;27;1395214;-67
2022/10/11 04:23:40;;;;;;;10.60;5.97;;;;;;;5.65;79.09;100301.66;5092220;27;2054057;-65
2022/10/11 04:26:18;;;;;;;11.88;6.70;;;;;;;5.50;79.20;100292.09;5121352;27;20909;-66
2022/10/11 04:28:55;;;;;;;9.48;6.05;;;;;;;5.62;79.62;100301.66;5117998;27;20623;-66
2022/10/11 04:31:33;;;;;;;8.93;5.72;;;;;;;5.57;79.27;100303.28;5117907;27;20125;-66
2022/10/11 04:34:10;;;;;;;7.82;5.93;;;;;;;5.47;79.79;100310.06;5121156;27;20630;-67
2022/10/11 04:36:46;;;;;;;7.88;5.50;;;;;;;5.53;79.62;100307.56;5121050;27;20140;-66
2022/10/11 04:39:23;;;;;;;8.23;5.85;;;;;;;5.50;79.55;100307.50;5106408;27;20130;-66
2022/10/11 04:41:59;;;;;;;8.85;5.57;;;;;;;5.51;79.82;100304.09;5080725;28;20367;-66
2022/10/11 04:44:35;;;;;;;8.73;5.68;;;;;;;5.58;80.06;100305.88;5116163;27;1401494;-66
2022/10/11 04:47:12;;;;;;;8.10;5.90;;;;;;;5.66;79.48;100305.97;5080162;28;20687;-65
2022/10/11 04:49:52;;;;;;;8.85;5.60;;;;;;;5.67;79.20;100303.41;5080810;28;20695;-66
2022/10/11 04:52:30;;;;;;;11.00;5.97;;;;;;;5.72;80.04;100302.59;5120884;27;20615;-65
2022/10/11 04:55:09;;;;;;;10.30;6.88;;;;;;;5.70;80.00;100300.84;5100754;27;20189;-65
2022/10/11 04:57:47;;;;;;;10.80;7.25;;;;;;;5.70;79.89;100295.72;5120908;27;20684;-67
2022/10/11 05:00:22;;;;;;;8.27;5.82;;;;;;;5.83;79.37;100303.53;5107281;27;2401157;-65
2022/10/11 05:02:59;;;;;;;10.80;6.03;;;;;;;5.80;79.68;100304.38;5121023;27;20812;-65
2022/10/11 05:05:35;;;;;;;9.18;5.30;;;;;;;5.79;79.21;100302.63;5080367;28;20624;-64
2022/10/11 05:08:13;;;;;;;12.10;5.82;;;;;;;5.85;79.45;100299.25;5120943;27;20553;-65
2022/10/11 05:11:06;;;;;;;9.80;5.07;;;;;;;5.83;79.62;100288.13;5109814;27;1387654;-64
2022/10/11 05:13:44;;;;;;;9.35;5.55;;;;;;;5.95;79.42;100295.91;5121291;27;20858;-65
2022/10/11 05:16:22;;;;;;;7.28;5.13;;;;;;;5.88;80.22;100289.84;5120907;27;20627;-66
2022/10/11 05:19:00;;;;;;;13.88;5.90;;;;;;;6.01;79.44;100302.81;5120800;27;20715;-65
2022/10/11 05:21:39;;;;;;;5.57;4.97;;;;;;;6.02;79.46;100299.41;5121203;27;20527;-65
2022/10/11 05:24:15;;;;;;;8.90;5.28;;;;;;;6.09;78.94;100292.63;5080283;28;20628;-65
2022/10/11 05:26:52;;;;;;;8.35;4.80;;;;;;;6.17;78.48;100296.06;5121176;27;20482;-65
2022/10/11 05:29:29;;;;;;;8.25;5.32;;;;;;;6.25;77.86;100291.00;5121459;27;20143;-65
2022/10/11 05:32:07;;;;;;;7.50;5.35;;;;;;;6.28;78.85;100297.00;5121187;27;20298;-65
2022/10/11 05:34:42;;;;;;;8.10;5.47;;;;;;;6.30;77.89;100287.59;5117261;27;1377447;-66
2022/10/11 05:37:22;;;;;;;9.50;5.43;;;;;;;6.40;77.93;100288.50;5080555;28;20725;-65
2022/10/11 05:39:58;;;;;;;10.70;5.47;;;;;;;6.39;78.00;100287.63;5080510;27;20138;-65
2022/10/11 05:42:35;;;;;;;7.78;5.30;;;;;;;6.49;78.03;100290.28;5121108;27;20159;-65
2022/10/11 05:45:15;;;;;;;12.05;5.55;;;;;;;6.51;77.89;100278.25;5080421;28;20683;-67
2022/10/11 05:47:55;;;;;;;5.53;4.95;;;;;;;6.64;77.78;100292.03;5120798;27;20505;-65
2022/10/11 05:50:31;;;;;;;15.38;6.03;;;;;;;6.72;77.53;100295.53;5121339;27;20630;-66
2022/10/11 05:53:10;;;;;;;6.88;4.65;;;;;;;6.74;76.94;100293.78;5080626;27;20636;-66
2022/10/11 05:55:47;;;;;;;10.38;4.68;;;;;;;6.74;76.69;100284.38;5121239;27;20699;-66
2022/10/11 05:58:25;;;;;;;7.32;5.22;;;;;;;6.79;76.18;100286.13;5121164;27;20519;-66
2022/10/11 06:01:03;;;;;;;10.38;5.13;;;;;;;6.98;76.07;100285.31;5099792;27;20129;-65
2022/10/11 06:03:39;;;;;;;20.23;5.25;;;;;;;7.04;76.21;100275.03;5100871;27;20628;-65
2022/10/11 06:06:16;;;;;;;16.45;5.13;;;;;;;7.13;76.25;100275.91;5120360;27;20133;-65
2022/10/11 06:08:54;;;;;;;10.23;5.18;;;;;;;7.27;75.52;100279.38;5121115;27;20554;-65
2022/10/11 06:11:31;;;;;;;7.97;4.53;;;;;;;7.35;75.22;100281.97;5121616;27;20510;-64
2022/10/11 06:14:05;;;;;;;6.63;4.35;;;;;;;7.22;75.34;100261.31;4629304;27;15074250;-65
2022/10/11 06:17:04;;;;;;;8.95;4.82;;;;;;;7.48;74.87;100278.56;5130414;27;24851;-65
2022/10/11 06:19:56;;;;;;;11.13;6.03;;;;;;;7.42;75.14;100266.53;5142477;27;20496;-66
2022/10/11 06:22:51;;;;;;;8.13;4.10;;;;;;;7.53;73.07;100270.81;5130110;27;24436;-66
2022/10/11 06:25:41;;;;;;;5.47;3.80;;;;;;;8.21;73.28;100269.03;5101329;27;24502;-66
2022/10/11 06:28:36;;;;;;;7.75;4.13;;;;;;;8.82;69.91;100259.38;5119607;27;20538;-66
2022/10/11 06:31:32;;;;;;;5.50;3.42;;;;;;;9.18;67.33;100262.63;5162320;27;24413;-66
2022/10/11 06:34:24;;;;;;;5.68;3.58;;;;;;;9.73;66.49;100279.44;5100895;27;24436;-65
2022/10/11 06:37:00;;;;;;;8.85;3.83;;;;;;;9.70;65.00;100276.88;4544677;27;17848774;-65
2022/10/11 06:39:52;;;;;;;8.52;3.97;;;;;;;10.91;64.48;100276.50;5102214;27;24883;-66
2022/10/11 06:42:57;;;;;;;10.55;3.75;;;;;;;10.41;61.98;100278.81;5160354;27;24502;-66
2022/10/11 06:45:33;;;;;;;7.75;3.70;;;;;;;9.88;64.48;100272.44;4546015;27;17850846;-67
2022/10/11 06:48:30;;;;;;;6.03;3.45;;;;;;;10.19;64.34;100265.25;5100362;27;24427;-66
2022/10/11 06:51:07;;;;;;;4.65;3.15;;;;;;;10.09;63.50;100253.25;4212226;27;27206698;-65
2022/10/11 06:53:42;;;;;;;8.10;3.60;;;;;;;10.14;65.28;100273.03;4517591;27;18669573;-66
2022/10/11 06:56:35;;;;;;;4.40;3.15;;;;;;;10.04;65.09;100265.41;5200461;27;24798;-66
2022/10/11 06:59:32;;;;;;;5.57;2.88;;;;;;;10.08;63.91;100267.09;5100961;27;24475;-66
2022/10/11 07:02:25;;;;;;;3.92;2.80;;;;;;;9.75;64.91;100263.91;5203900;27;24408;-65
2022/10/11 07:05:26;;;;;;;6.10;3.10;;;;;;;9.84;64.94;100262.09;5130198;27;24467;-66
2022/10/11 07:08:02;;;;;;;4.85;3.13;;;;;;;9.82;64.54;100260.44;4283904;27;23883272;-65
2022/10/11 07:11:08;;;;;;;5.90;2.60;;;;;;;9.98;64.82;100243.03;5204126;27;24396;-65
2022/10/11 07:13:52;;;;;;;3.75;2.45;;;;;;;10.39;63.99;100254.69;4528598;27;18010765;-66
2022/10/11 07:16:45;;;;;;;4.05;2.60;;;;;;;10.64;62.96;100257.84;5204131;27;24461;-66
2022/10/11 07:19:23;;;;;;;6.77;2.67;;;;;;;10.30;63.17;100257.34;3937387;27;33252233;-66
2022/10/11 07:22:27;;;;;;;4.90;2.60;;;;;;;10.39;62.46;100256.41;5140060;27;24541;-65
2022/10/11 07:25:24;;;;;;;5.88;2.63;;;;;;;10.58;64.52;100254.47;5100735;27;24430;-66
2022/10/11 07:27:58;;;;;;;4.13;2.58;;;;;;;10.35;62.65;100256.44;4429792;27;20857458;-66
2022/10/11 07:30:52;;;;;;;5.22;2.65;;;;;;;9.90;62.57;100262.94;5195666;27;24592;-66
2022/10/11 07:33:48;;;;;;;3.80;2.75;;;;;;;10.27;63.09;100258.22;5196891;27;24770;-66
2022/10/11 07:36:45;;;;;;;5.72;2.47;;;;;;;9.74;62.28;100257.03;5198542;27;24408;-66
2022/10/11 07:39:39;;;;;;;6.70;2.53;;;;;;;10.17;62.57;100241.94;5100331;27;24441;-66
2022/10/11 07:42:29;;;;;;;6.82;2.47;;;;;;;10.56;62.09;100251.03;5100751;27;24720;-66
2022/10/11 07:45:27;;;;;;;7.20;3.20;;;;;;;10.42;60.63;100246.88;5159871;27;20319;-65
2022/10/11 07:48:02;;;;;;;2.75;2.45;;;;;;;10.15;61.60;100243.69;4530556;27;17849311;-65
2022/10/11 07:50:59;;;;;;;6.85;3.38;;;;;;;9.65;63.07;100237.28;5100744;27;24889;-65
2022/10/11 07:53:56;;;;;;;4.03;3.15;;;;;;;10.08;62.77;100243.78;5099561;27;24472;-66
2022/10/11 07:56:59;;;;;;;5.30;3.47;;;;;;;10.08;61.96;100243.78;5138554;27;24408;-66
2022/10/11 07:59:34;;;;;;;6.68;3.40;;;;;;;9.88;63.18;100244.84;4633230;27;15075471;-67
2022/10/11 08:02:24;;;;;;;11.75;3.90;;;;;;;9.68;64.32;100242.44;5100855;27;24499;-67
2022/10/11 08:05:29;;;;;;;7.22;3.83;;;;;;;10.02;63.20;100252.47;5140205;27;24807;-66
2022/10/11 08:08:26;;;;;;;4.75;3.35;;;;;;;10.34;63.11;100238.34;5119466;27;24434;-66
2022/10/11 08:11:21;;;;;;;9.85;3.42;;;;;;;10.70;61.78;100231.88;5100536;27;24851;-65
2022/10/11 08:14:17;;;;;;;10.32;3.50;;;;;;;10.60;61.04;100235.44;5125775;27;24426;-66
2022/10/11 08:17:09;;;;;;;4.95;3.40;;;;;;;11.06;59.97;100233.97;5101313;27;24429;-65
2022/10/11 08:20:04;;;;;;;7.10;3.50;;;;;;;11.47;59.21;100234.19;5202795;27;24615;-66
2022/10/11 08:23:01;;;;;;;3.92;3.40;;;;;;;11.57;58.97;100227.97;5098249;27;24430;-67
2022/10/11 08:25:56;;;;;;;7.88;3.33;;;;;;;12.25;57.55;100217.25;5092138;27;24475;-66
2022/10/11 08:28:31;;;;;;;7.35;4.38;;;;;;;11.71;57.77;100225.16;4076051;27;30080236;-66
2022/10/11 08:31:23;;;;;;;3.28;2.90;;;;;;;12.31;55.69;100225.81;5139865;27;20488;-66
2022/10/11 08:34:23;;;;;;;3.70;3.08;;;;;;;12.36;53.72;100226.59;5129137;27;20529;-65
2022/10/11 08:37:02;;;;;;;4.13;3.10;;;;;;;12.52;54.64;100225.38;4091607;27;30256636;-66
2022/10/11 08:39:55;;;;;;;4.05;3.00;;;;;;;12.35;54.60;100222.28;5099926;27;24825;-66
2022/10/11 08:43:03;;;;;;;5.65;2.80;;;;;;;13.28;51.29;100221.97;5127558;27;24449;-66
2022/10/11 08:46:02;;;;;;;4.43;2.72;;;;;;;13.20;51.34;100194.44;5194108;27;24400;-66
2022/10/11 08:48:55;;;;;;;3.25;2.17;;;;;;;14.23;47.68;100207.41;5101529;27;24429;-67
2022/10/11 08:51:59;;;;;;;3.35;2.10;;;;;;;14.40;44.38;100204.31;5104990;27;24424;-66
2022/10/11 08:55:06;;;;;;;2.85;2.03;;;;;;;14.73;45.58;100198.19;5114387;27;20527;-66
2022/10/11 08:58:00;;;;;;;3.00;2.20;;;;;;;15.21;43.62;100176.69;5101015;27;24419;-66
2022/10/11 09:00:55;;;;;;;3.97;1.80;;;;;;;15.78;42.40;100194.81;5108315;27;20561;-66
2022/10/11 09:03:39;;;;;;;4.30;2.40;;;;;;;15.73;41.63;100162.75;5121430;27;20615;-66
2022/10/11 09:06:34;;;;;;;3.72;1.85;;;;;;;16.18;40.37;100190.81;5120469;27;21010;-66
2022/10/11 09:09:28;;;;;;;3.78;2.10;;;;;;;15.91;39.95;100180.44;5121197;27;20711;-66
2022/10/11 09:12:35;;;;;;;2.28;1.60;;;;;;;15.97;39.94;100184.56;5080324;28;20845;-67
2022/10/11 09:15:41;;;;;;;4.30;2.00;;;;;;;15.97;40.64;100180.19;5107754;27;1387443;-67
2022/10/11 09:18:31;;;;;;;2.28;1.90;;;;;;;15.73;39.75;100168.81;5127546;28;20050;-66
2022/10/11 09:21:26;;;;;;;2.13;1.70;;;;;;;15.06;40.38;100180.63;5100561;28;20055;-67
2022/10/11 09:24:20;;;;;;;4.40;1.55;;;;;;;13.50;41.11;100161.63;5123982;28;20045;-67
2022/10/11 09:27:04;;;;;;;2.28;1.55;;;;;;;13.51;40.51;100158.13;5080129;28;20622;-67
2022/10/11 09:29:47;;;;;;;3.45;1.55;;;;;;;12.95;40.99;100172.47;5080502;27;20629;-67
2022/10/11 09:32:31;;;;;;;2.22;1.70;;;;;;;11.95;42.29;100153.81;5080035;28;20826;-64
2022/10/11 09:35:14;;;;;;;3.13;1.60;;;;;;;11.97;43.85;100162.44;5121121;27;21010;-67
2022/10/11 09:37:48;;;;;;;3.85;1.98;;;;;;;12.14;44.19;100150.84;5120452;28;20024;-66
2022/10/11 09:40:23;;;;;;;3.40;1.67;;;;;;;12.23;45.18;100154.13;5109489;28;20344;-66
2022/10/11 09:42:49;;;;;;;3.47;2.22;;;;;;;12.50;44.14;100148.34;5101057;28;20154;-66
2022/10/11 09:45:19;;;;;;;3.90;2.20;;;;;;;12.68;44.32;100137.53;5100557;28;20028;-66
2022/10/11 09:47:45;;;;;;;1.98;1.75;;;;;;;12.85;44.75;100138.91;5100374;28;20022;-66
2022/10/11 09:50:19;;;;;;;4.70;2.25;;;;;;;12.79;43.95;100121.72;5100833;28;20071;-65
2022/10/11 09:52:54;;;;;;;4.90;1.90;;;;;;;12.55;40.59;100138.72;5123904;28;20215;-65
2022/10/11 09:55:52;;;;;;;3.63;1.85;;;;;;;11.95;40.78;100127.84;5106708;28;20103;-66
2022/10/11 09:58:37;;;;;;;2.05;1.58;;;;;;;11.95;37.01;100132.19;5108134;28;20205;-65
2022/10/11 10:01:10;;;;;;;2.80;1.40;;;;;;;11.98;40.48;100132.97;5106831;28;20099;-66
2022/10/11 10:03:39;;;;;;;1.90;1.40;;;;;;;12.04;41.77;100132.00;5105478;28;20032;-66
2022/10/11 10:06:07;;;;;;;4.13;1.83;;;;;;;12.14;41.95;100133.53;5110314;28;20320;-66
2022/10/11 10:08:34;;;;;;;2.03;1.73;;;;;;;12.55;42.37;100128.34;5105237;28;20038;-66
2022/10/11 10:11:06;;;;;;;3.97;2.00;;;;;;;12.50;42.86;100123.25;5104601;28;20036;-66
2022/10/11 10:13:44;;;;;;;;;;;;;;;12.67;42.80;100127.19;5109560;28;20095;-66
2022/10/11 10:16:25;;;;;;;3.92;1.80;;;;;;;12.71;42.48;100131.44;5105154;28;19915;-67
2022/10/11 10:19:17;;;;;;;2.20;1.90;;;;;;;12.69;41.58;100121.06;5110246;28;20126;-65
2022/10/11 10:21:46;;;;;;;2.40;1.80;;;;;;;12.85;42.65;100111.16;5109558;28;20024;-66
2022/10/11 10:24:37;;;;;;;4.70;2.55;;;;;;;12.94;42.80;100115.31;5092580;28;20020;-65
2022/10/11 10:27:24;;;;;;;2.15;1.67;;;;;;;13.11;42.09;100115.75;5109142;28;20059;-66
2022/10/11 10:30:15;;;;;;;2.58;2.10;;;;;;;13.15;42.40;100113.91;5110332;28;20083;-66
2022/10/11 10:32:49;;;;;;;1.92;1.70;;;;;;;13.20;41.45;100111.22;5100042;28;20077;-67
2022/10/11 10:35:24;;;;;;;3.42;2.10;;;;;;;13.28;41.57;100104.03;5108584;28;20334;-66
2022/10/11 10:38:15;;;;;;;2.88;1.92;;;;;;;13.24;41.00;100098.09;5108176;28;20296;-65
2022/10/11 10:40:53;;;;;;;4.80;2.33;;;;;;;13.24;41.89;100099.81;5108084;28;20073;-66
2022/10/11 10:43:22;;;;;;;2.35;1.70;;;;;;;13.19;41.83;100089.53;5104647;28;20092;-67
2022/10/11 10:45:57;;;;;;;3.17;2.25;;;;;;;13.12;41.32;100096.66;5093748;28;20042;-66
2022/10/11 10:48:54;;;;;;;4.22;2.13;;;;;;;12.90;41.41;100088.53;5105099;28;20032;-65
2022/10/11 10:51:47;;;;;;;4.05;2.75;;;;;;;13.00;40.97;100090.88;5103850;28;20093;-66
2022/10/11 10:54:50;;;;;;;2.63;2.03;;;;;;;13.11;42.92;100078.47;5105838;28;20083;-67
2022/10/11 10:57:28;;;;;;;3.15;2.13;;;;;;;13.02;41.69;100074.34;5084133;28;20218;-66
2022/10/11 11:00:14;;;;;;;4.13;2.28;;;;;;;13.11;42.38;100065.47;5084243;28;20321;-66
2022/10/11 11:02:42;;;;;;;2.75;2.10;;;;;;;13.11;43.00;100066.34;5105449;28;20063;-66
2022/10/11 11:05:11;;;;;;;3.20;2.00;;;;;;;13.19;44.47;100065.28;5090736;28;20051;-66
2022/10/11 11:07:50;;;;;;;4.10;2.33;;;;;;;13.17;42.08;100064.44;5095776;28;20019;-66
2022/10/11 11:10:37;;;;;;;5.70;2.90;;;;;;;13.15;40.97;100056.69;5097621;28;20036;-66
2022/10/11 11:13:24;;;;;;;4.82;2.75;;;;;;;13.18;40.89;100064.44;5098824;28;20052;-66
2022/10/11 11:16:02;;;;;;;3.67;2.28;;;;;;;13.21;42.35;100066.97;5098095;28;20324;-66
2022/10/11 11:18:56;;;;;;;3.28;2.40;;;;;;;12.87;41.39;100052.22;5085201;28;20025;-66
2022/10/11 11:21:42;;;;;;;4.35;2.13;;;;;;;13.10;42.45;100048.19;5057488;28;20094;-66
2022/10/11 11:24:45;;;;;;;4.20;2.47;;;;;;;13.17;41.42;100059.25;5100639;28;20043;-66
2022/10/11 11:27:20;;;;;;;6.03;2.38;;;;;;;13.20;42.17;100047.03;5093813;28;20096;-65
2022/10/11 11:29:59;;;;;;;2.53;2.10;;;;;;;12.98;39.99;100040.69;5090631;28;20024;-66
2022/10/11 11:32:40;;;;;;;4.50;2.50;;;;;;;13.01;39.04;100028.47;5101672;28;20028;-66
2022/10/11 11:35:30;;;;;;;3.47;1.90;;;;;;;12.88;38.70;100034.84;5090482;28;20266;-66
2022/10/11 11:38:37;;;;;;;4.00;2.30;;;;;;;12.95;38.19;100032.09;5097660;28;20051;-66
2022/10/11 11:41:09;;;;;;;4.35;2.30;;;;;;;12.91;38.32;100012.25;5030375;28;20042;-66
2022/10/11 11:43:44;;;;;;;;;;;;;;;13.02;38.49;100027.56;5095178;28;20035;-65
2022/10/11 11:46:20;;;;;;;3.90;2.47;;;;;;;12.79;39.78;100025.56;5098200;28;19916;-65
2022/10/11 11:48:49;;;;;;;3.03;2.20;;;;;;;12.73;40.35;100023.97;5088081;28;20020;-66
2022/10/11 11:51:24;;;;;;;4.72;2.00;;;;;;;12.81;39.62;100012.50;5104984;28;20031;-66
2022/10/11 11:54:05;;;;;;;4.55;2.20;;;;;;;12.72;39.30;100000.59;5103654;28;20219;-65
2022/10/11 11:56:39;;;;;;;6.28;2.60;;;;;;;12.71;40.82;100014.47;5086573;28;20304;-65
2022/10/11 11:59:14;;;;;;;4.03;2.30;;;;;;;12.83;41.62;100006.38;5097521;28;20093;-66
2022/10/11 12:02:00;;;;;;;4.43;2.60;;;;;;;12.89;40.86;100003.63;5094131;28;20055;-66
2022/10/11 12:04:34;;;;;;;4.30;2.55;;;;;;;12.69;41.35;99998.94;5088187;28;20035;-66
2022/10/11 12:07:12;;;;;;;3.72;2.63;;;;;;;12.92;42.23;100013.09;5083009;28;20086;-65
2022/10/11 12:09:40;;;;;;;2.95;2.17;;;;;;;12.80;39.31;100008.19;5086277;28;20134;-66
2022/10/11 12:12:29;;;;;;;2.60;2.05;;;;;;;12.86;39.71;99998.50;5103346;28;20085;-66
2022/10/11 12:15:25;;;;;;;3.30;2.33;;;;;;;12.87;40.18;99997.63;5084045;28;20021;-65
2022/10/11 12:17:57;;;;;;;3.80;2.08;;;;;;;12.82;39.88;99996.88;5084001;28;20028;-65
2022/10/11 12:20:26;;;;;;;2.22;1.90;;;;;;;12.90;41.24;99989.75;5096056;28;20043;-65
2022/10/11 12:23:14;;;;;;;2.97;2.38;;;;;;;12.93;40.87;99987.06;5100369;28;20293;-65
2022/10/11 12:25:42;;;;;;;3.28;2.25;;;;;;;12.72;39.69;99975.47;5092634;28;20032;-66
2022/10/11 12:28:41;;;;;;;4.40;2.88;;;;;;;12.74;40.63;99985.81;5083883;28;20096;-67
2022/10/11 12:31:25;;;;;;;2.60;2.20;;;;;;;12.66;41.62;99969.59;5092940;28;20024;-66
2022/10/11 12:34:19;;;;;;;3.58;3.10;;;;;;;12.77;40.71;99975.38;5093438;28;20082;-66
2022/10/11 12:36:48;;;;;;;3.55;2.38;;;;;;;12.73;41.58;99976.34;5083403;28;20024;-66
2022/10/11 12:39:19;;;;;;;3.70;2.47;;;;;;;12.74;42.06;99978.91;5093150;28;20073;-66
2022/10/11 12:41:50;;;;;;;5.50;2.47;;;;;;;12.67;41.59;99971.28;5090467;28;20221;-66